Ship Status Report: callsign BAREU11

sailwx.info

Track history (hours):
 
Tides and Currents Weather Stations Pressure Air Temp Water Temp Dewpoint Dewpoint Depression Visibility Wind Speed Wind Dir Waves Ship Positions

Callsign BAREU11 (name unknown)

Last reported at 2015-Jul-02 16:00 UTC. Time now 2015-Jul-02 18:14 UTC.
Position S 12°06' W 077°18'.

Barometer 1013.3 mb

Date/timePositionNaut miles runAvg speedWind from/ knotsBaromVisibWave heightAir tempDewpointWater temp
2015-Jul-02 16:00S 12°06' W 077°18'1212.0 1013.3
2015-Jul-02 15:00S 12°18' W 077°18'1918.9 1013.2
2015-Jul-02 14:00S 12°36' W 077°12'1918.9 1012.8
2015-Jul-02 13:00S 12°54' W 077°06'1918.9 1012.2
2015-Jul-02 12:00S 13°12' W 077°00'1818.0 1011.5
2015-Jul-02 11:00S 13°30' W 077°00'1918.9 1011.2
2015-Jul-02 10:00S 13°48' W 076°54'1918.9 1011.0
2015-Jul-02 09:00S 14°06' W 076°48'1818.0 1011.4
2015-Jul-02 08:00S 14°24' W 076°48'1313.3 1012.0
2015-Jul-02 07:00S 14°36' W 076°42'3818.9 1012.5
2015-Jul-02 05:00S 15°12' W 076°30'1818.0 1014.3
2015-Jul-02 04:00S 15°30' W 076°30'1918.9 1014.8
2015-Jul-02 03:00S 15°48' W 076°24'3818.9 1014.9
2015-Jul-02 01:00S 16°24' W 076°12'1313.3 1015.3
2015-Jul-02 00:00S 16°36' W 076°06'1818.0 1015.1
2015-Jul-01 23:00S 16°54' W 076°06'1918.9 1014.5
2015-Jul-01 22:00S 17°12' W 076°00'1918.9 1014.2
2015-Jul-01 21:00S 17°30' W 075°54'1818.0 1014.5
2015-Jul-01 20:00S 17°48' W 075°54'1918.9 1014.6
2015-Jul-01 19:00S 18°06' W 075°48'1918.9 1015.2
2015-Jul-01 18:00S 18°24' W 075°42'1918.9 1016.2
2015-Jul-01 17:00S 18°42' W 075°36'1818.0 1017.2
2015-Jul-01 16:00S 19°00' W 075°36'1918.9 1017.9
2015-Jul-01 15:00S 19°18' W 075°30'1313.3 1018.3
2015-Jul-01 14:00S 19°30' W 075°24'1918.9 1018.6
2015-Jul-01 13:00S 19°48' W 075°18'9318.6 1018.0
2015-Jul-01 08:00S 21°18' W 074°54'1818.0 1016.8
2015-Jul-01 07:00S 21°36' W 074°54'1313.2 1017.5
2015-Jul-01 06:00S 21°48' W 074°48'1918.8 1018.1
2015-Jul-01 05:00S 22°06' W 074°42'1918.8 1018.7
2015-Jul-01 04:00S 22°24' W 074°36'1918.8 1019.0
2015-Jul-01 03:00S 22°42' W 074°30'1818.0 1019.2
2015-Jul-01 02:00S 23°00' W 074°30'1918.8 1018.8
2015-Jul-01 01:00S 23°18' W 074°24'3216.0 1018.3
2015-Jun-30 23:00S 23°48' W 074°12'1918.8 1017.4
2015-Jun-30 22:00S 24°06' W 074°06'1818.0 1016.8
2015-Jun-30 21:00S 24°24' W 074°06'1918.8 1016.8
2015-Jun-30 20:00S 24°42' W 074°00'1918.8 1016.8
2015-Jun-30 19:00S 25°00' W 073°54'1918.8 1017.2
2015-Jun-30 18:00S 25°18' W 073°48'1313.2 1017.9
2015-Jun-30 17:00S 25°30' W 073°42'1818.0 1018.9
2015-Jun-30 16:00S 25°48' W 073°42'0 0.0 1019.2
2015-Jun-30 15:00S 25°48' W 073°42'0 0.0 1019.3
2015-Jun-30 14:00S 25°48' W 073°42'1313.2 1018.7
2015-Jun-30 13:00S 26°00' W 073°36'1918.8 1019.0
2015-Jun-30 12:00S 26°18' W 073°30'1818.0 1018.9
2015-Jun-30 11:00S 26°36' W 073°30'1918.8 1018.4
2015-Jun-30 10:00S 26°54' W 073°24'1918.8 1018.1
2015-Jun-30 09:00S 27°12' W 073°18'1918.8 1017.8
2015-Jun-30 08:00S 27°30' W 073°12'1918.8 1017.9
2015-Jun-30 07:00S 27°48' W 073°06'1918.8 1018.1
2015-Jun-30 06:00S 28°06' W 073°00'1818.0 1018.9
2015-Jun-30 05:00S 28°24' W 073°00'1918.8 1019.4
2015-Jun-30 04:00S 28°42' W 072°54'1918.8 1019.7
2015-Jun-30 03:00S 29°00' W 072°48'1918.7 1019.5
2015-Jun-30 02:00S 29°18' W 072°42'1313.1 1019.1
2015-Jun-30 01:00S 29°30' W 072°36'3618.2 1019.0
2015-Jun-29 23:00S 30°06' W 072°30'1918.7 1019.1
2015-Jun-29 22:00S 30°24' W 072°24'1918.7 1019.3
2015-Jun-29 21:00S 30°42' W 072°18'1918.7 1019.0
2015-Jun-29 20:00S 31°00' W 072°12'1918.7 1018.9
2015-Jun-29 19:00S 31°18' W 072°06'1918.7 1019.4
2015-Jun-29 18:00S 31°36' W 072°00'1918.7 1019.4
2015-Jun-29 17:00S 31°54' W 071°54'1212.0 1020.0
2015-Jun-29 16:00S 32°06' W 071°54'1918.7 1020.3
2015-Jun-29 15:00S 32°24' W 071°48'1918.7 1020.3
2015-Jun-29 14:00S 32°42' W 071°42'1918.7 1020.0
2015-Jun-29 13:00S 33°00' W 071°36'0 0.0 1019.4
2015-Jun-29 04:00S 33°00' W 071°36'0 0.0 1018.0
2015-Jun-29 02:00S 33°00' W 071°36'0 0.0 1017.4
2015-Jun-28 13:00S 33°00' W 071°36'0 0.0 1017.5
2015-Jun-27 22:00S 33°00' W 071°36'0 0.0 1016.5
2015-Jun-27 21:00S 33°00' W 071°36'8 2.6 1016.0
2015-Jun-27 18:00S 32°54' W 071°42'5 5.0 1015.9
2015-Jun-27 17:00S 32°54' W 071°36'0 0.0 1016.2
2015-Jun-27 15:00S 32°54' W 071°36'8 7.8 1016.4
2015-Jun-27 14:00S 32°48' W 071°42'1918.7 1016.1
2015-Jun-27 13:00S 32°30' W 071°48'1918.7 1015.5
2015-Jun-27 12:00S 32°12' W 071°54'1918.7 1015.3
2015-Jun-27 11:00S 31°54' W 072°00'1818.0 1015.4
2015-Jun-27 10:00S 31°36' W 072°00'1313.0 1014.9
2015-Jun-27 09:00S 31°24' W 072°06'1918.7 1014.5
2015-Jun-27 08:00S 31°06' W 072°12'1918.7 1014.8
2015-Jun-27 07:00S 30°48' W 072°18'1918.7 1014.6
2015-Jun-27 06:00S 30°30' W 072°24'1212.0 1014.7
2015-Jun-27 05:00S 30°18' W 072°24'3718.7 1014.7
2015-Jun-27 03:00S 29°42' W 072°36'1313.1 1014.4
2015-Jun-27 02:00S 29°30' W 072°42'1818.0 1014.5
2015-Jun-27 01:00S 29°12' W 072°42'3215.9 1015.2
2015-Jun-26 23:00S 28°42' W 072°54'1918.8 1013.9
2015-Jun-26 22:00S 28°24' W 073°00'1818.0 1013.3
2015-Jun-26 21:00S 28°06' W 073°00'1313.1 1013.5
2015-Jun-26 20:00S 27°54' W 073°06'1918.8 1013.6
2015-Jun-26 19:00S 27°36' W 073°12'1918.8 1013.9
2015-Jun-26 18:00S 27°18' W 073°18'1818.0 1014.8
2015-Jun-26 17:00S 27°00' W 073°18'1313.1 1015.6
2015-Jun-26 16:00S 26°48' W 073°24'1918.8 1016.0
2015-Jun-26 15:00S 26°30' W 073°30'1918.8 1016.2
2015-Jun-26 14:00S 26°12' W 073°36'1212.0 1016.0
2015-Jun-26 13:00S 26°00' W 073°36'1918.8 1015.5
2015-Jun-26 12:00S 25°42' W 073°42'3818.8 1015.1
2015-Jun-26 10:00S 25°06' W 073°54'1313.2 1014.3
2015-Jun-26 09:00S 24°54' W 074°00'1818.0 1014.4
2015-Jun-26 08:00S 24°36' W 074°00'1918.8 1014.7
2015-Jun-26 07:00S 24°18' W 074°06'1918.8 1014.8
2015-Jun-26 06:00S 24°00' W 074°12'1313.2 1015.4
2015-Jun-26 05:00S 23°48' W 074°18'1818.0 1015.4
2015-Jun-26 04:00S 23°30' W 074°18'1918.8 1015.6
2015-Jun-26 03:00S 23°12' W 074°24'3115.3 1015.6
2015-Jun-26 01:00S 22°42' W 074°30'3818.8 1015.2
2015-Jun-25 23:00S 22°06' W 074°42'1313.2 1014.0
2015-Jun-25 22:00S 21°54' W 074°48'1818.0 1013.5
2015-Jun-25 21:00S 21°36' W 074°48'1918.8 1013.5
2015-Jun-25 20:00S 21°18' W 074°54'1918.8 1013.5
2015-Jun-25 19:00S 21°00' W 075°00'1313.2 1013.8
2015-Jun-25 18:00S 20°48' W 075°06'1818.0 1014.2
2015-Jun-25 17:00S 20°30' W 075°06'1918.9 1014.8
2015-Jun-25 16:00S 20°12' W 075°12'1918.9 1015.4
2015-Jun-25 15:00S 19°54' W 075°18'1918.9 1015.5
2015-Jun-25 14:00S 19°36' W 075°24'1212.0 1015.3
2015-Jun-25 13:00S 19°24' W 075°24'1918.9 1014.4
2015-Jun-25 12:00S 19°06' W 075°30'1918.9 1014.0
2015-Jun-25 11:00S 18°48' W 075°36'1918.9 1013.6
2015-Jun-25 10:00S 18°30' W 075°42'1212.0 1012.9
2015-Jun-25 09:00S 18°18' W 075°42'3818.9 1012.9
2015-Jun-25 07:00S 17°42' W 075°54'1918.9 1013.0
2015-Jun-25 06:00S 17°24' W 076°00'3115.3 1013.3
2015-Jun-25 04:00S 16°54' W 076°06'1918.9 1014.2
2015-Jun-25 03:00S 16°36' W 076°12'1918.9 1014.4
2015-Jun-25 02:00S 16°18' W 076°18'1818.0 1014.3
2015-Jun-25 01:00S 16°00' W 076°18'1313.3 1013.8
2015-Jun-25 00:00S 15°48' W 076°24'3618.2 1013.3
2015-Jun-24 22:00S 15°12' W 076°30'1918.9 1011.9
2015-Jun-24 21:00S 14°54' W 076°36'1313.3 1011.1
2015-Jun-24 20:00S 14°42' W 076°42'1918.9 1010.8
2015-Jun-24 19:00S 14°24' W 076°48'1818.0 1011.3
2015-Jun-24 18:00S 14°06' W 076°48'1918.9 1012.0
2015-Jun-24 17:00S 13°48' W 076°54'1918.9 1012.9
2015-Jun-24 16:00S 13°30' W 077°00'3618.2 1013.4
2015-Jun-24 14:00S 12°54' W 077°06'1918.9 1013.6
2015-Jun-24 13:00S 12°36' W 077°12'1918.9 1013.5
2015-Jun-24 12:00S 12°18' W 077°18'1818.0 1012.7
2015-Jun-24 11:00S 12°00' W 077°18'12 0.7 1012.5
2015-Jun-23 19:00S 12°00' W 077°06'6 1.0 1011.7
2015-Jun-23 13:00S 12°00' W 077°12'0 0.0 1011.8
2015-Jun-23 07:00S 12°00' W 077°12'0 0.0 1011.2
2015-Jun-23 04:00S 12°00' W 077°12'1313.2 1012.4
2015-Jun-23 03:00S 11°54' W 077°24'1716.8 1012.4
2015-Jun-23 02:00S 11°42' W 077°36'2121.3 1012.8
2015-Jun-23 01:00S 11°30' W 077°54'1716.8 1012.5
2015-Jun-23 00:00S 11°18' W 078°06'2221.5 1012.3
2015-Jun-22 23:00S 11°00' W 078°18'1313.4 1011.7
2015-Jun-22 22:00S 10°48' W 078°24'2221.5 1011.3
2015-Jun-22 21:00S 10°30' W 078°36'1313.4 1011.3
2015-Jun-22 20:00S 10°18' W 078°42'2221.5 1011.3
2015-Jun-22 19:00S 10°00' W 078°54'1716.8 1011.8
2015-Jun-22 18:00S 09°48' W 079°06'1313.4 1012.7
2015-Jun-22 17:00S 09°36' W 079°12'2221.5 1013.3
2015-Jun-22 16:00S 09°18' W 079°24'   1014.2
Track history (hours):
 
Tides and Currents Weather Stations Pressure Air Temp Water Temp Dewpoint Dewpoint Depression Visibility Wind Speed Wind Dir Waves Ship Positions

Callsign BAREU11 (name unknown)

Last reported at 2015-Jul-02 16:00 UTC. Time now 2015-Jul-02 18:14 UTC.
Position S 12°06' W 077°18'.

Barometer 1013.3 mb

Date/timePositionNaut miles runAvg speedWind from/ knotsBaromVisibWave heightAir tempDewpointWater temp
2015-Jul-02 16:00S 12°06' W 077°18'1212.0 1013.3
2015-Jul-02 15:00S 12°18' W 077°18'1918.9 1013.2
2015-Jul-02 14:00S 12°36' W 077°12'1918.9 1012.8
2015-Jul-02 13:00S 12°54' W 077°06'1918.9 1012.2
2015-Jul-02 12:00S 13°12' W 077°00'1818.0 1011.5
2015-Jul-02 11:00S 13°30' W 077°00'1918.9 1011.2
2015-Jul-02 10:00S 13°48' W 076°54'1918.9 1011.0
2015-Jul-02 09:00S 14°06' W 076°48'1818.0 1011.4
2015-Jul-02 08:00S 14°24' W 076°48'1313.3 1012.0
2015-Jul-02 07:00S 14°36' W 076°42'3818.9 1012.5
2015-Jul-02 05:00S 15°12' W 076°30'1818.0 1014.3
2015-Jul-02 04:00S 15°30' W 076°30'1918.9 1014.8
2015-Jul-02 03:00S 15°48' W 076°24'3818.9 1014.9
2015-Jul-02 01:00S 16°24' W 076°12'1313.3 1015.3
2015-Jul-02 00:00S 16°36' W 076°06'1818.0 1015.1
2015-Jul-01 23:00S 16°54' W 076°06'1918.9 1014.5
2015-Jul-01 22:00S 17°12' W 076°00'1918.9 1014.2
2015-Jul-01 21:00S 17°30' W 075°54'1818.0 1014.5
2015-Jul-01 20:00S 17°48' W 075°54'1918.9 1014.6
2015-Jul-01 19:00S 18°06' W 075°48'1918.9 1015.2
2015-Jul-01 18:00S 18°24' W 075°42'1918.9 1016.2
2015-Jul-01 17:00S 18°42' W 075°36'1818.0 1017.2
2015-Jul-01 16:00S 19°00' W 075°36'1918.9 1017.9
2015-Jul-01 15:00S 19°18' W 075°30'1313.3 1018.3
2015-Jul-01 14:00S 19°30' W 075°24'1918.9 1018.6
2015-Jul-01 13:00S 19°48' W 075°18'9318.6 1018.0
2015-Jul-01 08:00S 21°18' W 074°54'1818.0 1016.8
2015-Jul-01 07:00S 21°36' W 074°54'1313.2 1017.5
2015-Jul-01 06:00S 21°48' W 074°48'1918.8 1018.1
2015-Jul-01 05:00S 22°06' W 074°42'1918.8 1018.7
2015-Jul-01 04:00S 22°24' W 074°36'1918.8 1019.0
2015-Jul-01 03:00S 22°42' W 074°30'1818.0 1019.2
2015-Jul-01 02:00S 23°00' W 074°30'1918.8 1018.8
2015-Jul-01 01:00S 23°18' W 074°24'3216.0 1018.3
2015-Jun-30 23:00S 23°48' W 074°12'1918.8 1017.4
2015-Jun-30 22:00S 24°06' W 074°06'1818.0 1016.8
2015-Jun-30 21:00S 24°24' W 074°06'1918.8 1016.8
2015-Jun-30 20:00S 24°42' W 074°00'1918.8 1016.8
2015-Jun-30 19:00S 25°00' W 073°54'1918.8 1017.2
2015-Jun-30 18:00S 25°18' W 073°48'1313.2 1017.9
2015-Jun-30 17:00S 25°30' W 073°42'1818.0 1018.9
2015-Jun-30 16:00S 25°48' W 073°42'0 0.0 1019.2
2015-Jun-30 15:00S 25°48' W 073°42'0 0.0 1019.3
2015-Jun-30 14:00S 25°48' W 073°42'1313.2 1018.7
2015-Jun-30 13:00S 26°00' W 073°36'1918.8 1019.0
2015-Jun-30 12:00S 26°18' W 073°30'1818.0 1018.9
2015-Jun-30 11:00S 26°36' W 073°30'1918.8 1018.4
2015-Jun-30 10:00S 26°54' W 073°24'1918.8 1018.1
2015-Jun-30 09:00S 27°12' W 073°18'1918.8 1017.8
2015-Jun-30 08:00S 27°30' W 073°12'1918.8 1017.9
2015-Jun-30 07:00S 27°48' W 073°06'1918.8 1018.1
2015-Jun-30 06:00S 28°06' W 073°00'1818.0 1018.9
2015-Jun-30 05:00S 28°24' W 073°00'1918.8 1019.4
2015-Jun-30 04:00S 28°42' W 072°54'1918.8 1019.7
2015-Jun-30 03:00S 29°00' W 072°48'1918.7 1019.5
2015-Jun-30 02:00S 29°18' W 072°42'1313.1 1019.1
2015-Jun-30 01:00S 29°30' W 072°36'3618.2 1019.0
2015-Jun-29 23:00S 30°06' W 072°30'1918.7 1019.1
2015-Jun-29 22:00S 30°24' W 072°24'1918.7 1019.3
2015-Jun-29 21:00S 30°42' W 072°18'1918.7 1019.0
2015-Jun-29 20:00S 31°00' W 072°12'1918.7 1018.9
2015-Jun-29 19:00S 31°18' W 072°06'1918.7 1019.4
2015-Jun-29 18:00S 31°36' W 072°00'1918.7 1019.4
2015-Jun-29 17:00S 31°54' W 071°54'1212.0 1020.0
2015-Jun-29 16:00S 32°06' W 071°54'1918.7 1020.3
2015-Jun-29 15:00S 32°24' W 071°48'1918.7 1020.3
2015-Jun-29 14:00S 32°42' W 071°42'1918.7 1020.0
2015-Jun-29 13:00S 33°00' W 071°36'0 0.0 1019.4
2015-Jun-29 04:00S 33°00' W 071°36'0 0.0 1018.0
2015-Jun-29 02:00S 33°00' W 071°36'0 0.0 1017.4
2015-Jun-28 13:00S 33°00' W 071°36'0 0.0 1017.5
2015-Jun-27 22:00S 33°00' W 071°36'0 0.0 1016.5
2015-Jun-27 21:00S 33°00' W 071°36'8 2.6 1016.0
2015-Jun-27 18:00S 32°54' W 071°42'5 5.0 1015.9
2015-Jun-27 17:00S 32°54' W 071°36'0 0.0 1016.2
2015-Jun-27 15:00S 32°54' W 071°36'8 7.8 1016.4
2015-Jun-27 14:00S 32°48' W 071°42'1918.7 1016.1
2015-Jun-27 13:00S 32°30' W 071°48'1918.7 1015.5
2015-Jun-27 12:00S 32°12' W 071°54'1918.7 1015.3
2015-Jun-27 11:00S 31°54' W 072°00'1818.0 1015.4
2015-Jun-27 10:00S 31°36' W 072°00'1313.0 1014.9
2015-Jun-27 09:00S 31°24' W 072°06'1918.7 1014.5
2015-Jun-27 08:00S 31°06' W 072°12'1918.7 1014.8
2015-Jun-27 07:00S 30°48' W 072°18'1918.7 1014.6
2015-Jun-27 06:00S 30°30' W 072°24'1212.0 1014.7
2015-Jun-27 05:00S 30°18' W 072°24'3718.7 1014.7
2015-Jun-27 03:00S 29°42' W 072°36'1313.1 1014.4
2015-Jun-27 02:00S 29°30' W 072°42'1818.0 1014.5
2015-Jun-27 01:00S 29°12' W 072°42'3215.9 1015.2
2015-Jun-26 23:00S 28°42' W 072°54'1918.8 1013.9
2015-Jun-26 22:00S 28°24' W 073°00'1818.0 1013.3
2015-Jun-26 21:00S 28°06' W 073°00'1313.1 1013.5
2015-Jun-26 20:00S 27°54' W 073°06'1918.8 1013.6
2015-Jun-26 19:00S 27°36' W 073°12'1918.8 1013.9
2015-Jun-26 18:00S 27°18' W 073°18'1818.0 1014.8
2015-Jun-26 17:00S 27°00' W 073°18'1313.1 1015.6
2015-Jun-26 16:00S 26°48' W 073°24'1918.8 1016.0
2015-Jun-26 15:00S 26°30' W 073°30'1918.8 1016.2
2015-Jun-26 14:00S 26°12' W 073°36'1212.0 1016.0
2015-Jun-26 13:00S 26°00' W 073°36'1918.8 1015.5
2015-Jun-26 12:00S 25°42' W 073°42'3818.8 1015.1
2015-Jun-26 10:00S 25°06' W 073°54'1313.2 1014.3
2015-Jun-26 09:00S 24°54' W 074°00'1818.0 1014.4
2015-Jun-26 08:00S 24°36' W 074°00'1918.8 1014.7
2015-Jun-26 07:00S 24°18' W 074°06'1918.8 1014.8
2015-Jun-26 06:00S 24°00' W 074°12'1313.2 1015.4
2015-Jun-26 05:00S 23°48' W 074°18'1818.0 1015.4
2015-Jun-26 04:00S 23°30' W 074°18'1918.8 1015.6
2015-Jun-26 03:00S 23°12' W 074°24'3115.3 1015.6
2015-Jun-26 01:00S 22°42' W 074°30'3818.8 1015.2
2015-Jun-25 23:00S 22°06' W 074°42'1313.2 1014.0
2015-Jun-25 22:00S 21°54' W 074°48'1818.0 1013.5
2015-Jun-25 21:00S 21°36' W 074°48'1918.8 1013.5
2015-Jun-25 20:00S 21°18' W 074°54'1918.8 1013.5
2015-Jun-25 19:00S 21°00' W 075°00'1313.2 1013.8
2015-Jun-25 18:00S 20°48' W 075°06'1818.0 1014.2
2015-Jun-25 17:00S 20°30' W 075°06'1918.9 1014.8
2015-Jun-25 16:00S 20°12' W 075°12'1918.9 1015.4
2015-Jun-25 15:00S 19°54' W 075°18'1918.9 1015.5
2015-Jun-25 14:00S 19°36' W 075°24'1212.0 1015.3
2015-Jun-25 13:00S 19°24' W 075°24'1918.9 1014.4
2015-Jun-25 12:00S 19°06' W 075°30'1918.9 1014.0
2015-Jun-25 11:00S 18°48' W 075°36'1918.9 1013.6
2015-Jun-25 10:00S 18°30' W 075°42'1212.0 1012.9
2015-Jun-25 09:00S 18°18' W 075°42'3818.9 1012.9
2015-Jun-25 07:00S 17°42' W 075°54'1918.9 1013.0
2015-Jun-25 06:00S 17°24' W 076°00'3115.3 1013.3
2015-Jun-25 04:00S 16°54' W 076°06'1918.9 1014.2
2015-Jun-25 03:00S 16°36' W 076°12'1918.9 1014.4
2015-Jun-25 02:00S 16°18' W 076°18'1818.0 1014.3
2015-Jun-25 01:00S 16°00' W 076°18'1313.3 1013.8
2015-Jun-25 00:00S 15°48' W 076°24'3618.2 1013.3
2015-Jun-24 22:00S 15°12' W 076°30'1918.9 1011.9
2015-Jun-24 21:00S 14°54' W 076°36'1313.3 1011.1
2015-Jun-24 20:00S 14°42' W 076°42'1918.9 1010.8
2015-Jun-24 19:00S 14°24' W 076°48'1818.0 1011.3
2015-Jun-24 18:00S 14°06' W 076°48'1918.9 1012.0
2015-Jun-24 17:00S 13°48' W 076°54'1918.9 1012.9
2015-Jun-24 16:00S 13°30' W 077°00'3618.2 1013.4
2015-Jun-24 14:00S 12°54' W 077°06'1918.9 1013.6
2015-Jun-24 13:00S 12°36' W 077°12'1918.9 1013.5
2015-Jun-24 12:00S 12°18' W 077°18'1818.0 1012.7
2015-Jun-24 11:00S 12°00' W 077°18'12 0.7 1012.5
2015-Jun-23 19:00S 12°00' W 077°06'6 1.0 1011.7
2015-Jun-23 13:00S 12°00' W 077°12'0 0.0 1011.8
2015-Jun-23 07:00S 12°00' W 077°12'0 0.0 1011.2
2015-Jun-23 04:00S 12°00' W 077°12'1313.2 1012.4
2015-Jun-23 03:00S 11°54' W 077°24'1716.8 1012.4
2015-Jun-23 02:00S 11°42' W 077°36'2121.3 1012.8
2015-Jun-23 01:00S 11°30' W 077°54'1716.8 1012.5
2015-Jun-23 00:00S 11°18' W 078°06'2221.5 1012.3
2015-Jun-22 23:00S 11°00' W 078°18'1313.4 1011.7
2015-Jun-22 22:00S 10°48' W 078°24'2221.5 1011.3
2015-Jun-22 21:00S 10°30' W 078°36'1313.4 1011.3
2015-Jun-22 20:00S 10°18' W 078°42'2221.5 1011.3
2015-Jun-22 19:00S 10°00' W 078°54'1716.8 1011.8
2015-Jun-22 18:00S 09°48' W 079°06'1313.4 1012.7
2015-Jun-22 17:00S 09°36' W 079°12'2221.5 1013.3
2015-Jun-22 16:00S 09°18' W 079°24'   1014.2

Dump ship's entire track history